sensor_id;sensor_type;location;lat;lon;timestamp;temperature;humidity
39675;DHT22;27790;50.840;4.386;2022-07-17T00:01:21;18.10;69.00
39675;DHT22;27790;50.840;4.386;2022-07-17T00:03:47;18.10;68.90
39675;DHT22;27790;50.840;4.386;2022-07-17T00:06:13;18.20;68.70
39675;DHT22;27790;50.840;4.386;2022-07-17T00:08:39;18.20;68.70
39675;DHT22;27790;50.840;4.386;2022-07-17T00:11:07;18.10;68.80
39675;DHT22;27790;50.840;4.386;2022-07-17T00:13:33;18.00;69.00
39675;DHT22;27790;50.840;4.386;2022-07-17T00:16:01;18.00;69.30
39675;DHT22;27790;50.840;4.386;2022-07-17T00:18:27;18.00;69.40
39675;DHT22;27790;50.840;4.386;2022-07-17T00:20:52;18.00;69.90
39675;DHT22;27790;50.840;4.386;2022-07-17T00:23:18;18.00;69.70
39675;DHT22;27790;50.840;4.386;2022-07-17T00:25:44;18.00;69.70
39675;DHT22;27790;50.840;4.386;2022-07-17T00:28:10;18.00;69.90
39675;DHT22;27790;50.840;4.386;2022-07-17T00:30:36;18.00;69.80
39675;DHT22;27790;50.840;4.386;2022-07-17T00:33:03;17.90;70.00
39675;DHT22;27790;50.840;4.386;2022-07-17T00:35:29;17.90;70.20
39675;DHT22;27790;50.840;4.386;2022-07-17T00:37:55;17.80;70.40
39675;DHT22;27790;50.840;4.386;2022-07-17T00:40:23;17.90;70.50
39675;DHT22;27790;50.840;4.386;2022-07-17T00:42:49;17.90;70.60
39675;DHT22;27790;50.840;4.386;2022-07-17T00:45:16;17.80;70.80
39675;DHT22;27790;50.840;4.386;2022-07-17T00:48:00;17.80;70.70
39675;DHT22;27790;50.840;4.386;2022-07-17T00:50:38;17.80;70.80
39675;DHT22;27790;50.840;4.386;2022-07-17T00:53:05;17.80;70.80
39675;DHT22;27790;50.840;4.386;2022-07-17T00:55:31;17.80;70.90
39675;DHT22;27790;50.840;4.386;2022-07-17T00:57:58;17.90;71.10
39675;DHT22;27790;50.840;4.386;2022-07-17T01:00:25;17.80;71.00
39675;DHT22;27790;50.840;4.386;2022-07-17T01:02:52;17.80;71.40
39675;DHT22;27790;50.840;4.386;2022-07-17T01:05:20;17.80;71.40
39675;DHT22;27790;50.840;4.386;2022-07-17T01:07:46;17.70;71.70
39675;DHT22;27790;50.840;4.386;2022-07-17T01:10:12;17.70;71.60
39675;DHT22;27790;50.840;4.386;2022-07-17T01:12:39;17.70;72.20
39675;DHT22;27790;50.840;4.386;2022-07-17T01:15:07;17.80;71.70
39675;DHT22;27790;50.840;4.386;2022-07-17T01:17:34;17.60;71.90
39675;DHT22;27790;50.840;4.386;2022-07-17T01:20:02;17.60;72.30
39675;DHT22;27790;50.840;4.386;2022-07-17T01:22:28;17.60;72.40
39675;DHT22;27790;50.840;4.386;2022-07-17T01:24:54;17.60;72.60
39675;DHT22;27790;50.840;4.386;2022-07-17T01:27:20;17.50;72.70
39675;DHT22;27790;50.840;4.386;2022-07-17T01:29:45;17.50;72.90
39675;DHT22;27790;50.840;4.386;2022-07-17T01:32:11;17.50;73.00
39675;DHT22;27790;50.840;4.386;2022-07-17T01:34:37;17.50;73.10
39675;DHT22;27790;50.840;4.386;2022-07-17T01:37:02;17.50;73.20
39675;DHT22;27790;50.840;4.386;2022-07-17T01:39:28;17.50;73.10
39675;DHT22;27790;50.840;4.386;2022-07-17T01:42:04;17.60;73.20
39675;DHT22;27790;50.840;4.386;2022-07-17T01:44:30;17.60;73.20
39675;DHT22;27790;50.840;4.386;2022-07-17T01:46:55;17.60;73.30
39675;DHT22;27790;50.840;4.386;2022-07-17T01:49:21;17.60;73.30
39675;DHT22;27790;50.840;4.386;2022-07-17T01:51:47;17.50;73.30
39675;DHT22;27790;50.840;4.386;2022-07-17T01:54:12;17.60;73.40
39675;DHT22;27790;50.840;4.386;2022-07-17T01:56:38;17.60;73.60
39675;DHT22;27790;50.840;4.386;2022-07-17T01:59:03;17.60;73.60
39675;DHT22;27790;50.840;4.386;2022-07-17T02:01:29;17.60;73.50
39675;DHT22;27790;50.840;4.386;2022-07-17T02:03:54;17.60;73.50
39675;DHT22;27790;50.840;4.386;2022-07-17T02:06:20;17.50;73.60
39675;DHT22;27790;50.840;4.386;2022-07-17T02:08:46;17.50;73.80
39675;DHT22;27790;50.840;4.386;2022-07-17T02:11:14;17.50;73.90
39675;DHT22;27790;50.840;4.386;2022-07-17T02:13:39;17.40;73.70
39675;DHT22;27790;50.840;4.386;2022-07-17T02:16:05;17.40;73.80
39675;DHT22;27790;50.840;4.386;2022-07-17T02:18:31;17.40;73.90
39675;DHT22;27790;50.840;4.386;2022-07-17T02:20:57;17.50;74.10
39675;DHT22;27790;50.840;4.386;2022-07-17T02:23:23;17.40;73.70
39675;DHT22;27790;50.840;4.386;2022-07-17T02:25:48;17.40;73.70
39675;DHT22;27790;50.840;4.386;2022-07-17T02:28:14;17.40;74.10
39675;DHT22;27790;50.840;4.386;2022-07-17T02:30:39;17.40;73.70
39675;DHT22;27790;50.840;4.386;2022-07-17T02:33:05;17.30;73.90
39675;DHT22;27790;50.840;4.386;2022-07-17T02:35:32;17.30;74.00
39675;DHT22;27790;50.840;4.386;2022-07-17T02:37:58;17.20;74.10
39675;DHT22;27790;50.840;4.386;2022-07-17T02:40:23;17.20;74.50
39675;DHT22;27790;50.840;4.386;2022-07-17T02:42:49;17.20;74.50
39675;DHT22;27790;50.840;4.386;2022-07-17T02:45:14;17.20;74.40
39675;DHT22;27790;50.840;4.386;2022-07-17T02:47:41;17.20;74.30
39675;DHT22;27790;50.840;4.386;2022-07-17T02:50:08;17.20;74.40
39675;DHT22;27790;50.840;4.386;2022-07-17T02:52:34;17.10;74.60
39675;DHT22;27790;50.840;4.386;2022-07-17T02:55:00;17.10;74.60
39675;DHT22;27790;50.840;4.386;2022-07-17T02:57:26;17.10;74.80
39675;DHT22;27790;50.840;4.386;2022-07-17T02:59:51;17.10;74.70
39675;DHT22;27790;50.840;4.386;2022-07-17T03:02:17;17.10;74.80
39675;DHT22;27790;50.840;4.386;2022-07-17T03:04:43;17.10;74.70
39675;DHT22;27790;50.840;4.386;2022-07-17T03:07:08;17.10;74.70
39675;DHT22;27790;50.840;4.386;2022-07-17T03:09:34;17.10;74.80
39675;DHT22;27790;50.840;4.386;2022-07-17T03:12:00;17.10;75.00
39675;DHT22;27790;50.840;4.386;2022-07-17T03:14:25;17.00;75.00
39675;DHT22;27790;50.840;4.386;2022-07-17T03:16:51;17.00;75.30
39675;DHT22;27790;50.840;4.386;2022-07-17T03:19:16;16.90;75.50
39675;DHT22;27790;50.840;4.386;2022-07-17T03:21:42;16.90;75.70
39675;DHT22;27790;50.840;4.386;2022-07-17T03:24:08;16.90;75.70
39675;DHT22;27790;50.840;4.386;2022-07-17T03:26:33;16.90;75.70
39675;DHT22;27790;50.840;4.386;2022-07-17T03:28:59;16.90;75.80
39675;DHT22;27790;50.840;4.386;2022-07-17T03:31:24;16.80;76.00
39675;DHT22;27790;50.840;4.386;2022-07-17T03:33:50;16.80;76.00
39675;DHT22;27790;50.840;4.386;2022-07-17T03:36:15;16.80;76.10
39675;DHT22;27790;50.840;4.386;2022-07-17T03:38:41;16.80;76.20
39675;DHT22;27790;50.840;4.386;2022-07-17T03:41:07;16.80;76.30
39675;DHT22;27790;50.840;4.386;2022-07-17T03:43:32;16.80;76.00
39675;DHT22;27790;50.840;4.386;2022-07-17T03:45:58;16.80;76.20
39675;DHT22;27790;50.840;4.386;2022-07-17T03:48:23;16.70;76.50
39675;DHT22;27790;50.840;4.386;2022-07-17T03:50:49;16.80;76.70
39675;DHT22;27790;50.840;4.386;2022-07-17T03:53:14;16.80;76.60
39675;DHT22;27790;50.840;4.386;2022-07-17T03:55:40;16.80;76.90
39675;DHT22;27790;50.840;4.386;2022-07-17T03:58:06;16.80;76.30
39675;DHT22;27790;50.840;4.386;2022-07-17T04:00:31;16.80;76.40
39675;DHT22;27790;50.840;4.386;2022-07-17T04:02:57;16.80;76.30
39675;DHT22;27790;50.840;4.386;2022-07-17T04:05:22;16.80;76.30
39675;DHT22;27790;50.840;4.386;2022-07-17T04:07:48;16.90;76.10
39675;DHT22;27790;50.840;4.386;2022-07-17T04:10:14;16.90;76.10
39675;DHT22;27790;50.840;4.386;2022-07-17T04:12:41;16.90;75.90
39675;DHT22;27790;50.840;4.386;2022-07-17T04:15:07;16.90;76.30
39675;DHT22;27790;50.840;4.386;2022-07-17T04:17:33;16.90;76.00
39675;DHT22;27790;50.840;4.386;2022-07-17T04:19:59;17.00;75.70
39675;DHT22;27790;50.840;4.386;2022-07-17T04:22:24;17.00;75.60
39675;DHT22;27790;50.840;4.386;2022-07-17T04:24:51;17.00;75.40
39675;DHT22;27790;50.840;4.386;2022-07-17T04:27:17;17.00;75.60
39675;DHT22;27790;50.840;4.386;2022-07-17T04:29:43;17.10;75.50
39675;DHT22;27790;50.840;4.386;2022-07-17T04:32:08;17.20;75.30
39675;DHT22;27790;50.840;4.386;2022-07-17T04:34:34;17.60;74.20
39675;DHT22;27790;50.840;4.386;2022-07-17T04:37:01;18.30;71.60
39675;DHT22;27790;50.840;4.386;2022-07-17T04:39:27;18.80;70.00
39675;DHT22;27790;50.840;4.386;2022-07-17T04:41:52;19.30;68.30
39675;DHT22;27790;50.840;4.386;2022-07-17T04:44:18;19.70;66.50
39675;DHT22;27790;50.840;4.386;2022-07-17T04:46:45;20.00;66.00
39675;DHT22;27790;50.840;4.386;2022-07-17T04:49:11;20.30;64.70
39675;DHT22;27790;50.840;4.386;2022-07-17T04:51:36;20.60;64.00
39675;DHT22;27790;50.840;4.386;2022-07-17T04:54:02;20.90;62.80
39675;DHT22;27790;50.840;4.386;2022-07-17T04:56:28;21.30;61.20
39675;DHT22;27790;50.840;4.386;2022-07-17T04:58:53;21.40;61.20
39675;DHT22;27790;50.840;4.386;2022-07-17T05:01:19;21.80;60.70
39675;DHT22;27790;50.840;4.386;2022-07-17T05:03:44;22.10;59.40
39675;DHT22;27790;50.840;4.386;2022-07-17T05:06:10;22.50;58.00
39675;DHT22;27790;50.840;4.386;2022-07-17T05:08:36;22.70;57.50
39675;DHT22;27790;50.840;4.386;2022-07-17T05:11:02;22.80;57.50
39675;DHT22;27790;50.840;4.386;2022-07-17T05:13:28;22.90;56.90
39675;DHT22;27790;50.840;4.386;2022-07-17T05:15:53;22.90;56.70
39675;DHT22;27790;50.840;4.386;2022-07-17T05:18:19;22.90;56.90
39675;DHT22;27790;50.840;4.386;2022-07-17T05:20:44;23.10;56.30
39675;DHT22;27790;50.840;4.386;2022-07-17T05:23:10;23.50;55.00
39675;DHT22;27790;50.840;4.386;2022-07-17T05:25:36;23.70;54.20
39675;DHT22;27790;50.840;4.386;2022-07-17T05:28:02;24.00;53.60
39675;DHT22;27790;50.840;4.386;2022-07-17T05:30:28;24.10;53.80
39675;DHT22;27790;50.840;4.386;2022-07-17T05:32:54;24.10;53.10
39675;DHT22;27790;50.840;4.386;2022-07-17T05:35:20;24.20;53.50
39675;DHT22;27790;50.840;4.386;2022-07-17T05:37:45;24.60;52.60
39675;DHT22;27790;50.840;4.386;2022-07-17T05:40:11;24.60;52.40
39675;DHT22;27790;50.840;4.386;2022-07-17T05:42:37;24.00;53.50
39675;DHT22;27790;50.840;4.386;2022-07-17T05:45:03;23.50;54.60
39675;DHT22;27790;50.840;4.386;2022-07-17T05:47:29;22.90;55.80
39675;DHT22;27790;50.840;4.386;2022-07-17T05:49:55;22.40;57.40
39675;DHT22;27790;50.840;4.386;2022-07-17T05:52:21;21.90;59.20
39675;DHT22;27790;50.840;4.386;2022-07-17T05:54:46;21.60;59.50
39675;DHT22;27790;50.840;4.386;2022-07-17T05:57:12;21.50;60.10
39675;DHT22;27790;50.840;4.386;2022-07-17T05:59:38;21.50;60.10
39675;DHT22;27790;50.840;4.386;2022-07-17T06:02:04;21.60;59.90
39675;DHT22;27790;50.840;4.386;2022-07-17T06:04:30;21.60;59.50
39675;DHT22;27790;50.840;4.386;2022-07-17T06:06:55;21.60;60.00
39675;DHT22;27790;50.840;4.386;2022-07-17T06:09:21;21.70;59.20
39675;DHT22;27790;50.840;4.386;2022-07-17T06:11:48;21.70;59.20
39675;DHT22;27790;50.840;4.386;2022-07-17T06:14:13;21.80;59.20
39675;DHT22;27790;50.840;4.386;2022-07-17T06:16:39;22.10;58.60
39675;DHT22;27790;50.840;4.386;2022-07-17T06:19:04;22.20;58.40
39675;DHT22;27790;50.840;4.386;2022-07-17T06:21:30;22.20;58.10
39675;DHT22;27790;50.840;4.386;2022-07-17T06:23:56;22.30;58.10
39675;DHT22;27790;50.840;4.386;2022-07-17T06:26:21;22.80;56.40
39675;DHT22;27790;50.840;4.386;2022-07-17T06:28:47;23.30;54.70
39675;DHT22;27790;50.840;4.386;2022-07-17T06:31:13;23.50;54.20
39675;DHT22;27790;50.840;4.386;2022-07-17T06:33:38;23.40;55.60
39675;DHT22;27790;50.840;4.386;2022-07-17T06:36:04;23.40;55.60
39675;DHT22;27790;50.840;4.386;2022-07-17T06:38:31;23.40;55.40
39675;DHT22;27790;50.840;4.386;2022-07-17T06:40:57;23.30;55.60
39675;DHT22;27790;50.840;4.386;2022-07-17T06:43:22;23.20;55.50
39675;DHT22;27790;50.840;4.386;2022-07-17T06:45:48;23.30;56.20
39675;DHT22;27790;50.840;4.386;2022-07-17T06:48:17;23.40;56.90
39675;DHT22;27790;50.840;4.386;2022-07-17T06:50:42;23.90;54.80
39675;DHT22;27790;50.840;4.386;2022-07-17T06:53:08;24.40;53.70
39675;DHT22;27790;50.840;4.386;2022-07-17T06:55:33;24.90;52.40
39675;DHT22;27790;50.840;4.386;2022-07-17T06:57:59;25.40;51.30
39675;DHT22;27790;50.840;4.386;2022-07-17T07:00:24;26.10;50.40
39675;DHT22;27790;50.840;4.386;2022-07-17T07:02:50;26.60;50.30
39675;DHT22;27790;50.840;4.386;2022-07-17T07:05:15;27.10;48.70
39675;DHT22;27790;50.840;4.386;2022-07-17T07:07:41;27.50;48.00
39675;DHT22;27790;50.840;4.386;2022-07-17T07:10:07;27.80;47.10
39675;DHT22;27790;50.840;4.386;2022-07-17T07:12:33;28.10;46.90
39675;DHT22;27790;50.840;4.386;2022-07-17T07:14:59;28.30;46.40
39675;DHT22;27790;50.840;4.386;2022-07-17T07:17:24;28.30;46.10
39675;DHT22;27790;50.840;4.386;2022-07-17T07:19:50;28.10;46.60
39675;DHT22;27790;50.840;4.386;2022-07-17T07:22:16;27.90;48.00
39675;DHT22;27790;50.840;4.386;2022-07-17T07:24:41;27.80;48.40
39675;DHT22;27790;50.840;4.386;2022-07-17T07:27:07;27.80;47.20
39675;DHT22;27790;50.840;4.386;2022-07-17T07:29:33;27.90;46.70
39675;DHT22;27790;50.840;4.386;2022-07-17T07:31:58;28.20;46.90
39675;DHT22;27790;50.840;4.386;2022-07-17T07:34:27;28.50;45.70
39675;DHT22;27790;50.840;4.386;2022-07-17T07:36:53;28.90;45.70
39675;DHT22;27790;50.840;4.386;2022-07-17T07:39:18;29.00;44.60
39675;DHT22;27790;50.840;4.386;2022-07-17T07:41:44;28.70;44.90
39675;DHT22;27790;50.840;4.386;2022-07-17T07:44:09;28.60;45.70
39675;DHT22;27790;50.840;4.386;2022-07-17T07:46:35;28.70;45.00
39675;DHT22;27790;50.840;4.386;2022-07-17T07:49:00;28.70;45.10
39675;DHT22;27790;50.840;4.386;2022-07-17T07:51:26;28.90;44.60
39675;DHT22;27790;50.840;4.386;2022-07-17T07:53:52;28.90;44.70
39675;DHT22;27790;50.840;4.386;2022-07-17T07:56:17;28.80;44.40
39675;DHT22;27790;50.840;4.386;2022-07-17T07:58:43;28.50;44.50
39675;DHT22;27790;50.840;4.386;2022-07-17T08:01:08;28.50;45.30
39675;DHT22;27790;50.840;4.386;2022-07-17T08:03:34;28.60;45.10
39675;DHT22;27790;50.840;4.386;2022-07-17T08:06:00;28.40;45.00
39675;DHT22;27790;50.840;4.386;2022-07-17T08:08:25;28.60;45.10
39675;DHT22;27790;50.840;4.386;2022-07-17T08:10:51;28.70;45.40
39675;DHT22;27790;50.840;4.386;2022-07-17T08:13:17;29.00;44.90
39675;DHT22;27790;50.840;4.386;2022-07-17T08:15:43;29.10;45.40
39675;DHT22;27790;50.840;4.386;2022-07-17T08:18:08;29.10;44.00
39675;DHT22;27790;50.840;4.386;2022-07-17T08:20:34;29.10;43.70
39675;DHT22;27790;50.840;4.386;2022-07-17T08:22:59;28.80;44.30
39675;DHT22;27790;50.840;4.386;2022-07-17T08:25:25;28.90;44.00
39675;DHT22;27790;50.840;4.386;2022-07-17T08:27:51;29.20;44.80
39675;DHT22;27790;50.840;4.386;2022-07-17T08:30:16;29.50;44.10
39675;DHT22;27790;50.840;4.386;2022-07-17T08:32:42;29.80;44.10
39675;DHT22;27790;50.840;4.386;2022-07-17T08:35:09;30.10;43.00
39675;DHT22;27790;50.840;4.386;2022-07-17T08:37:46;30.40;42.40
39675;DHT22;27790;50.840;4.386;2022-07-17T08:40:32;30.20;41.90
39675;DHT22;27790;50.840;4.386;2022-07-17T08:42:59;30.30;42.10
39675;DHT22;27790;50.840;4.386;2022-07-17T08:45:25;30.30;42.20
39675;DHT22;27790;50.840;4.386;2022-07-17T08:47:53;30.60;41.30
39675;DHT22;27790;50.840;4.386;2022-07-17T08:50:37;30.60;41.10
39675;DHT22;27790;50.840;4.386;2022-07-17T08:53:03;30.70;41.80
39675;DHT22;27790;50.840;4.386;2022-07-17T08:55:32;30.90;42.10
39675;DHT22;27790;50.840;4.386;2022-07-17T08:57:58;31.10;41.60
39675;DHT22;27790;50.840;4.386;2022-07-17T09:00:24;31.40;40.50
39675;DHT22;27790;50.840;4.386;2022-07-17T09:05:37;31.90;40.60
39675;DHT22;27790;50.840;4.386;2022-07-17T09:08:04;31.80;39.60
39675;DHT22;27790;50.840;4.386;2022-07-17T09:12:57;32.30;39.50
39675;DHT22;27790;50.840;4.386;2022-07-17T09:15:23;32.50;39.80
39675;DHT22;27790;50.840;4.386;2022-07-17T09:17:54;32.20;39.10
39675;DHT22;27790;50.840;4.386;2022-07-17T09:20:21;32.00;40.00
39675;DHT22;27790;50.840;4.386;2022-07-17T09:23:02;32.20;39.90
39675;DHT22;27790;50.840;4.386;2022-07-17T09:25:34;32.50;39.70
39675;DHT22;27790;50.840;4.386;2022-07-17T09:28:02;32.30;39.10
39675;DHT22;27790;50.840;4.386;2022-07-17T09:30:28;31.80;39.80
39675;DHT22;27790;50.840;4.386;2022-07-17T09:32:55;30.90;40.30
39675;DHT22;27790;50.840;4.386;2022-07-17T09:35:21;30.30;40.70
39675;DHT22;27790;50.840;4.386;2022-07-17T09:37:47;29.90;41.30
39675;DHT22;27790;50.840;4.386;2022-07-17T09:40:14;29.50;41.40
39675;DHT22;27790;50.840;4.386;2022-07-17T09:42:55;28.80;42.40
39675;DHT22;27790;50.840;4.386;2022-07-17T09:45:20;28.40;44.00
39675;DHT22;27790;50.840;4.386;2022-07-17T09:47:46;28.10;43.40
39675;DHT22;27790;50.840;4.386;2022-07-17T09:50:12;27.70;43.90
39675;DHT22;27790;50.840;4.386;2022-07-17T09:52:38;27.60;44.30
39675;DHT22;27790;50.840;4.386;2022-07-17T09:55:04;27.60;45.50
39675;DHT22;27790;50.840;4.386;2022-07-17T09:57:32;27.80;45.70
39675;DHT22;27790;50.840;4.386;2022-07-17T10:00:06;27.60;43.80
39675;DHT22;27790;50.840;4.386;2022-07-17T10:02:33;26.90;43.50
39675;DHT22;27790;50.840;4.386;2022-07-17T10:04:59;26.50;45.30
39675;DHT22;27790;50.840;4.386;2022-07-17T10:07:26;26.30;46.50
39675;DHT22;27790;50.840;4.386;2022-07-17T10:09:52;26.10;46.70
39675;DHT22;27790;50.840;4.386;2022-07-17T10:12:18;25.80;46.50
39675;DHT22;27790;50.840;4.386;2022-07-17T10:14:47;25.60;47.20
39675;DHT22;27790;50.840;4.386;2022-07-17T10:17:14;25.30;48.60
39675;DHT22;27790;50.840;4.386;2022-07-17T10:19:53;25.10;48.80
39675;DHT22;27790;50.840;4.386;2022-07-17T10:22:19;25.00;48.60
39675;DHT22;27790;50.840;4.386;2022-07-17T10:24:56;25.10;49.60
39675;DHT22;27790;50.840;4.386;2022-07-17T10:27:28;25.30;48.10
39675;DHT22;27790;50.840;4.386;2022-07-17T10:30:06;25.50;49.60
39675;DHT22;27790;50.840;4.386;2022-07-17T10:32:32;25.60;48.60
39675;DHT22;27790;50.840;4.386;2022-07-17T10:35:07;25.50;46.60
39675;DHT22;27790;50.840;4.386;2022-07-17T10:37:39;25.30;45.80
39675;DHT22;27790;50.840;4.386;2022-07-17T10:40:15;25.20;47.80
39675;DHT22;27790;50.840;4.386;2022-07-17T10:48:07;25.20;47.50
39675;DHT22;27790;50.840;4.386;2022-07-17T10:50:45;25.10;46.50
39675;DHT22;27790;50.840;4.386;2022-07-17T10:53:19;25.00;46.00
39675;DHT22;27790;50.840;4.386;2022-07-17T10:55:59;25.20;46.90
39675;DHT22;27790;50.840;4.386;2022-07-17T10:58:28;25.30;47.90
39675;DHT22;27790;50.840;4.386;2022-07-17T11:06:12;25.70;45.80
39675;DHT22;27790;50.840;4.386;2022-07-17T11:08:42;25.70;45.30
39675;DHT22;27790;50.840;4.386;2022-07-17T11:11:08;25.70;45.60
39675;DHT22;27790;50.840;4.386;2022-07-17T11:13:34;25.80;45.20
39675;DHT22;27790;50.840;4.386;2022-07-17T11:16:00;25.80;46.70
39675;DHT22;27790;50.840;4.386;2022-07-17T11:18:25;25.90;46.40
39675;DHT22;27790;50.840;4.386;2022-07-17T11:20:58;26.00;47.00
39675;DHT22;27790;50.840;4.386;2022-07-17T11:23:27;26.00;48.20
39675;DHT22;27790;50.840;4.386;2022-07-17T11:26:02;26.20;49.80
39675;DHT22;27790;50.840;4.386;2022-07-17T11:31:22;26.40;46.00
39675;DHT22;27790;50.840;4.386;2022-07-17T11:33:53;26.40;46.80
39675;DHT22;27790;50.840;4.386;2022-07-17T11:38:58;26.50;46.30
39675;DHT22;27790;50.840;4.386;2022-07-17T11:41:39;26.60;44.60
39675;DHT22;27790;50.840;4.386;2022-07-17T11:44:08;26.50;43.60
39675;DHT22;27790;50.840;4.386;2022-07-17T11:46:35;26.50;44.50
39675;DHT22;27790;50.840;4.386;2022-07-17T11:49:02;26.40;45.90
39675;DHT22;27790;50.840;4.386;2022-07-17T11:54:15;26.60;45.30
39675;DHT22;27790;50.840;4.386;2022-07-17T11:56:43;26.60;45.90
39675;DHT22;27790;50.840;4.386;2022-07-17T11:59:30;26.60;44.30
39675;DHT22;27790;50.840;4.386;2022-07-17T12:01:56;26.80;43.50
39675;DHT22;27790;50.840;4.386;2022-07-17T12:04:22;26.90;42.00
39675;DHT22;27790;50.840;4.386;2022-07-17T12:06:59;26.80;42.90
39675;DHT22;27790;50.840;4.386;2022-07-17T12:09:27;26.70;41.30
39675;DHT22;27790;50.840;4.386;2022-07-17T12:11:53;26.60;41.40
39675;DHT22;27790;50.840;4.386;2022-07-17T12:14:19;26.50;42.90
39675;DHT22;27790;50.840;4.386;2022-07-17T12:16:45;26.50;42.90
39675;DHT22;27790;50.840;4.386;2022-07-17T12:21:55;26.60;42.90
39675;DHT22;27790;50.840;4.386;2022-07-17T12:26:54;26.90;45.80
39675;DHT22;27790;50.840;4.386;2022-07-17T12:29:20;26.80;41.60
39675;DHT22;27790;50.840;4.386;2022-07-17T12:31:46;26.70;41.60
39675;DHT22;27790;50.840;4.386;2022-07-17T12:34:12;26.60;42.30
39675;DHT22;27790;50.840;4.386;2022-07-17T12:36:37;26.70;43.40
39675;DHT22;27790;50.840;4.386;2022-07-17T12:39:03;26.60;44.20
39675;DHT22;27790;50.840;4.386;2022-07-17T12:41:29;26.70;45.70
39675;DHT22;27790;50.840;4.386;2022-07-17T12:43:55;26.70;45.20
39675;DHT22;27790;50.840;4.386;2022-07-17T12:46:20;26.70;44.90
39675;DHT22;27790;50.840;4.386;2022-07-17T12:48:46;26.70;44.70
39675;DHT22;27790;50.840;4.386;2022-07-17T12:51:13;26.60;44.50
39675;DHT22;27790;50.840;4.386;2022-07-17T12:53:40;26.60;44.40
39675;DHT22;27790;50.840;4.386;2022-07-17T12:56:07;26.60;44.70
39675;DHT22;27790;50.840;4.386;2022-07-17T12:58:33;26.70;44.30
39675;DHT22;27790;50.840;4.386;2022-07-17T13:00:59;26.70;44.40
39675;DHT22;27790;50.840;4.386;2022-07-17T13:03:25;26.80;44.70
39675;DHT22;27790;50.840;4.386;2022-07-17T13:05:51;26.80;45.20
39675;DHT22;27790;50.840;4.386;2022-07-17T13:08:17;27.00;44.60
39675;DHT22;27790;50.840;4.386;2022-07-17T13:10:42;27.00;45.70
39675;DHT22;27790;50.840;4.386;2022-07-17T13:13:08;26.90;45.50
39675;DHT22;27790;50.840;4.386;2022-07-17T13:15:33;27.00;45.70
39675;DHT22;27790;50.840;4.386;2022-07-17T13:17:59;26.90;43.90
39675;DHT22;27790;50.840;4.386;2022-07-17T13:20:26;26.90;43.30
39675;DHT22;27790;50.840;4.386;2022-07-17T13:22:52;26.80;42.80
39675;DHT22;27790;50.840;4.386;2022-07-17T13:25:17;26.90;42.00
39675;DHT22;27790;50.840;4.386;2022-07-17T13:27:43;26.80;41.80
39675;DHT22;27790;50.840;4.386;2022-07-17T13:30:09;26.80;42.20
39675;DHT22;27790;50.840;4.386;2022-07-17T13:32:35;26.80;41.40
39675;DHT22;27790;50.840;4.386;2022-07-17T13:35:01;26.90;40.70
39675;DHT22;27790;50.840;4.386;2022-07-17T13:37:26;27.00;41.10
39675;DHT22;27790;50.840;4.386;2022-07-17T13:39:52;27.10;41.30
39675;DHT22;27790;50.840;4.386;2022-07-17T13:42:17;27.10;41.50
39675;DHT22;27790;50.840;4.386;2022-07-17T13:44:43;27.10;43.30
39675;DHT22;27790;50.840;4.386;2022-07-17T13:47:09;27.00;43.10
39675;DHT22;27790;50.840;4.386;2022-07-17T13:49:34;27.10;43.70
39675;DHT22;27790;50.840;4.386;2022-07-17T13:52:00;27.30;43.70
39675;DHT22;27790;50.840;4.386;2022-07-17T13:54:26;27.30;43.30
39675;DHT22;27790;50.840;4.386;2022-07-17T13:56:51;27.30;43.80
39675;DHT22;27790;50.840;4.386;2022-07-17T13:59:18;27.30;42.10
39675;DHT22;27790;50.840;4.386;2022-07-17T14:01:44;27.20;42.00
39675;DHT22;27790;50.840;4.386;2022-07-17T14:04:09;27.20;42.60
39675;DHT22;27790;50.840;4.386;2022-07-17T14:06:35;27.30;42.80
39675;DHT22;27790;50.840;4.386;2022-07-17T14:09:01;27.30;42.30
39675;DHT22;27790;50.840;4.386;2022-07-17T14:11:26;27.40;41.50
39675;DHT22;27790;50.840;4.386;2022-07-17T14:13:52;27.30;41.20
39675;DHT22;27790;50.840;4.386;2022-07-17T14:16:18;27.30;41.30
39675;DHT22;27790;50.840;4.386;2022-07-17T14:18:43;27.30;41.80
39675;DHT22;27790;50.840;4.386;2022-07-17T14:21:21;27.30;41.50
39675;DHT22;27790;50.840;4.386;2022-07-17T14:23:46;27.40;40.80
39675;DHT22;27790;50.840;4.386;2022-07-17T14:26:12;27.30;41.20
39675;DHT22;27790;50.840;4.386;2022-07-17T14:28:38;27.20;41.80
39675;DHT22;27790;50.840;4.386;2022-07-17T14:31:03;27.30;42.80
39675;DHT22;27790;50.840;4.386;2022-07-17T14:33:29;27.30;42.50
39675;DHT22;27790;50.840;4.386;2022-07-17T14:35:54;27.40;41.50
39675;DHT22;27790;50.840;4.386;2022-07-17T14:38:20;27.40;41.00
39675;DHT22;27790;50.840;4.386;2022-07-17T14:40:47;27.30;40.70
39675;DHT22;27790;50.840;4.386;2022-07-17T14:43:12;27.20;41.20
39675;DHT22;27790;50.840;4.386;2022-07-17T14:45:38;27.30;41.50
39675;DHT22;27790;50.840;4.386;2022-07-17T14:48:03;27.30;41.30
39675;DHT22;27790;50.840;4.386;2022-07-17T14:50:29;27.20;41.50
39675;DHT22;27790;50.840;4.386;2022-07-17T14:52:55;27.10;41.70
39675;DHT22;27790;50.840;4.386;2022-07-17T14:55:20;27.10;42.30
39675;DHT22;27790;50.840;4.386;2022-07-17T14:57:46;27.10;41.20
39675;DHT22;27790;50.840;4.386;2022-07-17T15:00:12;27.10;41.30
39675;DHT22;27790;50.840;4.386;2022-07-17T15:02:37;27.20;41.40
39675;DHT22;27790;50.840;4.386;2022-07-17T15:05:03;27.30;41.20
39675;DHT22;27790;50.840;4.386;2022-07-17T15:07:29;27.40;41.50
39675;DHT22;27790;50.840;4.386;2022-07-17T15:09:54;27.30;41.70
39675;DHT22;27790;50.840;4.386;2022-07-17T15:12:20;27.20;41.80
39675;DHT22;27790;50.840;4.386;2022-07-17T15:14:46;27.30;41.70
39675;DHT22;27790;50.840;4.386;2022-07-17T15:17:11;27.30;41.50
39675;DHT22;27790;50.840;4.386;2022-07-17T15:19:37;27.30;41.80
39675;DHT22;27790;50.840;4.386;2022-07-17T15:22:02;27.40;43.00
39675;DHT22;27790;50.840;4.386;2022-07-17T15:24:30;27.30;41.00
39675;DHT22;27790;50.840;4.386;2022-07-17T15:26:56;27.30;41.20
39675;DHT22;27790;50.840;4.386;2022-07-17T15:29:21;27.40;42.00
39675;DHT22;27790;50.840;4.386;2022-07-17T15:31:47;27.40;40.50
39675;DHT22;27790;50.840;4.386;2022-07-17T15:34:13;27.50;40.80
39675;DHT22;27790;50.840;4.386;2022-07-17T15:36:39;27.50;42.50
39675;DHT22;27790;50.840;4.386;2022-07-17T15:39:04;27.50;41.40
39675;DHT22;27790;50.840;4.386;2022-07-17T15:41:31;27.50;41.60
39675;DHT22;27790;50.840;4.386;2022-07-17T15:43:56;27.50;41.00
39675;DHT22;27790;50.840;4.386;2022-07-17T15:46:22;27.60;41.40
39675;DHT22;27790;50.840;4.386;2022-07-17T15:48:48;27.60;41.30
39675;DHT22;27790;50.840;4.386;2022-07-17T15:51:14;27.60;40.70
39675;DHT22;27790;50.840;4.386;2022-07-17T15:53:40;27.60;40.70
39675;DHT22;27790;50.840;4.386;2022-07-17T15:56:06;27.50;40.40